createdAt,value
2022-11-12T00:01:16.558Z,1022.88
2022-11-12T00:04:16.560Z,1022.9
2022-11-12T00:07:16.585Z,1022.87
2022-11-12T00:10:16.551Z,1022.94
2022-11-12T00:13:16.550Z,1023.01
2022-11-12T00:16:16.554Z,1023
2022-11-12T00:19:16.555Z,1023.04
2022-11-12T00:22:16.551Z,1023.06
2022-11-12T00:25:16.549Z,1023.03
2022-11-12T00:28:16.551Z,1023.01
2022-11-12T00:31:16.549Z,1023
2022-11-12T00:34:16.541Z,1022.96
2022-11-12T00:37:16.554Z,1022.97
2022-11-12T00:40:16.542Z,1023.01
2022-11-12T00:43:16.540Z,1023.01
2022-11-12T00:46:16.541Z,1023.01
2022-11-12T00:49:16.536Z,1022.99
2022-11-12T00:52:16.542Z,1022.96
2022-11-12T00:55:16.537Z,1022.89
2022-11-12T00:58:16.531Z,1022.82
2022-11-12T01:01:16.590Z,1022.81
2022-11-12T01:04:16.537Z,1022.85
2022-11-12T01:07:16.572Z,1022.89
2022-11-12T01:10:16.528Z,1022.89
2022-11-12T01:13:16.532Z,1022.83
2022-11-12T01:16:16.534Z,1022.83
2022-11-12T01:19:16.534Z,1022.84
2022-11-12T01:22:16.534Z,1022.81
2022-11-12T01:25:16.527Z,1022.8
2022-11-12T01:28:16.525Z,1022.78
2022-11-12T01:31:16.525Z,1022.83
2022-11-12T01:34:16.513Z,1022.77
2022-11-12T01:37:16.534Z,1022.77
2022-11-12T01:40:16.515Z,1022.79
2022-11-12T01:43:16.508Z,1022.79
2022-11-12T01:46:16.512Z,1022.76
2022-11-12T01:49:16.514Z,1022.66
2022-11-12T01:52:16.505Z,1022.68
2022-11-12T01:55:16.505Z,1022.7
2022-11-12T01:58:16.522Z,1022.75
2022-11-12T02:01:16.547Z,1022.76
2022-11-12T02:04:16.501Z,1022.75
2022-11-12T02:07:16.532Z,1022.71
2022-11-12T02:10:16.499Z,1022.68
2022-11-12T02:13:16.490Z,1022.65
2022-11-12T02:16:16.489Z,1022.67
2022-11-12T02:19:16.492Z,1022.66
2022-11-12T02:22:16.492Z,1022.63
2022-11-12T02:25:16.490Z,1022.72
2022-11-12T02:28:16.486Z,1022.67
2022-11-12T02:31:16.481Z,1022.69
2022-11-12T02:34:16.484Z,1022.76
2022-11-12T02:37:16.478Z,1022.69
2022-11-12T02:40:16.475Z,1022.71
2022-11-12T02:43:16.473Z,1022.74
2022-11-12T02:46:16.475Z,1022.77
2022-11-12T02:49:16.473Z,1022.71
2022-11-12T02:52:16.471Z,1022.74
2022-11-12T02:55:16.489Z,1022.73
2022-11-12T02:58:16.468Z,1022.66
2022-11-12T03:01:16.524Z,1022.67
2022-11-12T03:04:16.469Z,1022.66
2022-11-12T03:07:16.484Z,1022.61
2022-11-12T03:10:16.460Z,1022.61
2022-11-12T03:13:16.459Z,1022.7
2022-11-12T03:16:16.463Z,1022.71
2022-11-12T03:19:16.461Z,1022.7
2022-11-12T03:22:16.460Z,1022.73
2022-11-12T03:25:16.458Z,1022.69
2022-11-12T03:28:16.458Z,1022.71
2022-11-12T03:31:16.455Z,1022.59
2022-11-12T03:34:16.456Z,1022.58
2022-11-12T03:37:16.460Z,1022.55
2022-11-12T03:40:16.457Z,1022.54
2022-11-12T03:43:16.452Z,1022.55
2022-11-12T03:46:16.452Z,1022.55
2022-11-12T03:49:16.448Z,1022.52
2022-11-12T03:52:16.452Z,1022.53
2022-11-12T03:55:16.445Z,1022.51
2022-11-12T03:58:16.443Z,1022.53
2022-11-12T04:01:16.495Z,1022.48
2022-11-12T04:04:16.440Z,1022.5
2022-11-12T04:07:16.465Z,1022.52
2022-11-12T04:10:16.442Z,1022.5
2022-11-12T04:13:16.445Z,1022.48
2022-11-12T04:16:16.438Z,1022.48
2022-11-12T04:19:16.440Z,1022.45
2022-11-12T04:22:16.437Z,1022.48
2022-11-12T04:25:16.432Z,1022.5
2022-11-12T04:28:16.425Z,1022.49
2022-11-12T04:31:16.432Z,1022.5
2022-11-12T04:34:16.430Z,1022.53
2022-11-12T04:37:19.838Z,1022.49
2022-11-12T04:40:16.428Z,1022.53
2022-11-12T04:43:16.424Z,1022.56
2022-11-12T04:46:16.419Z,1022.6
2022-11-12T04:49:16.418Z,1022.57
2022-11-12T04:52:16.422Z,1022.67
2022-11-12T04:55:16.423Z,1022.61
2022-11-12T04:58:16.421Z,1022.67
2022-11-12T05:01:16.483Z,1022.67
2022-11-12T05:04:16.419Z,1022.61
2022-11-12T05:07:16.443Z,1022.64
2022-11-12T05:10:16.419Z,1022.59
2022-11-12T05:13:16.412Z,1022.55
2022-11-12T05:16:16.413Z,1022.57
2022-11-12T05:19:16.425Z,1022.57
2022-11-12T05:22:33.598Z,1022.54
2022-11-12T05:25:16.415Z,1022.6
2022-11-12T05:28:16.414Z,1022.55
2022-11-12T05:31:16.421Z,1022.53
2022-11-12T05:34:20.036Z,1022.54
2022-11-12T05:37:16.424Z,1022.55
2022-11-12T05:40:16.405Z,1022.58
2022-11-12T05:43:16.408Z,1022.56
2022-11-12T05:46:16.408Z,1022.61
2022-11-12T05:49:16.405Z,1022.61
2022-11-12T05:52:16.441Z,1022.57
2022-11-12T05:55:16.431Z,1022.58
2022-11-12T05:58:16.422Z,1022.6
2022-11-12T06:01:16.436Z,1022.69
2022-11-12T06:04:16.411Z,1022.67
2022-11-12T06:07:16.443Z,1022.66
2022-11-12T06:10:20.420Z,1022.68
2022-11-12T06:13:16.420Z,1022.68
2022-11-12T06:16:16.414Z,1022.69
2022-11-12T06:19:16.745Z,1022.75
2022-11-12T06:22:16.733Z,1022.81
2022-11-12T06:25:16.741Z,1022.78
2022-11-12T06:28:16.762Z,1022.78
2022-11-12T06:31:16.736Z,1022.85
2022-11-12T06:34:16.724Z,1022.81
2022-11-12T06:37:16.732Z,1022.85
2022-11-12T06:40:16.719Z,1022.85
2022-11-12T06:43:16.711Z,1022.87
2022-11-12T06:46:16.731Z,1022.85
2022-11-12T06:49:16.717Z,1022.91
2022-11-12T06:52:16.924Z,1022.85
2022-11-12T06:55:16.709Z,1022.87
2022-11-12T06:58:16.701Z,1022.88
2022-11-12T07:01:16.819Z,1022.91
2022-11-12T07:04:16.706Z,1022.89
2022-11-12T07:07:16.752Z,1022.92
2022-11-12T07:10:16.708Z,1022.93
2022-11-12T07:13:16.701Z,1022.95
2022-11-12T07:16:16.711Z,1023.02
2022-11-12T07:19:16.696Z,1023
2022-11-12T07:22:16.714Z,1023
2022-11-12T07:25:16.708Z,1023.04
2022-11-12T07:28:16.697Z,1023.01
2022-11-12T07:31:16.706Z,1023.06
2022-11-12T07:34:16.696Z,1023.08
2022-11-12T07:37:16.708Z,1023.03
2022-11-12T07:40:16.696Z,1022.99
2022-11-12T07:43:16.688Z,1023
2022-11-12T07:46:16.695Z,1023.04
2022-11-12T07:49:16.697Z,1023.05
2022-11-12T07:52:16.684Z,1023.04
2022-11-12T07:55:16.683Z,1022.93
2022-11-12T07:58:16.689Z,1022.92
2022-11-12T08:01:16.724Z,1022.94
2022-11-12T08:04:16.692Z,1022.92
2022-11-12T08:07:16.769Z,1022.89
2022-11-12T08:10:16.682Z,1022.93
2022-11-12T08:13:16.674Z,1022.94
2022-11-12T08:16:16.678Z,1022.95
2022-11-12T08:19:16.690Z,1022.96
2022-11-12T08:22:16.694Z,1023
2022-11-12T08:25:16.701Z,1023
2022-11-12T08:28:16.681Z,1022.99
2022-11-12T08:31:16.686Z,1023.04
2022-11-12T08:34:21.486Z,1023.01
2022-11-12T08:37:16.654Z,1022.99
2022-11-12T08:40:16.669Z,1023
2022-11-12T08:43:16.664Z,1022.96
2022-11-12T08:46:16.660Z,1022.96
2022-11-12T08:49:16.659Z,1022.98
2022-11-12T08:52:16.662Z,1023.02
2022-11-12T08:55:16.661Z,1023.01
2022-11-12T08:58:16.660Z,1023.07
2022-11-12T09:01:16.713Z,1023.06
2022-11-12T09:04:16.655Z,1023.06
2022-11-12T09:07:35.643Z,1023.07
2022-11-12T09:10:16.658Z,1023.08
2022-11-12T09:13:16.652Z,1023.08
2022-11-12T09:16:16.662Z,1023.03
2022-11-12T09:19:16.661Z,1023.05
2022-11-12T09:22:16.665Z,1023.1
2022-11-12T09:25:16.650Z,1023.05
2022-11-12T09:28:16.653Z,1022.98
2022-11-12T09:31:16.661Z,1023
2022-11-12T09:34:16.725Z,1022.95
2022-11-12T09:37:16.656Z,1022.96
2022-11-12T09:40:16.646Z,1023.03
2022-11-12T09:43:16.645Z,1023.05
2022-11-12T09:46:27.903Z,1023.05
2022-11-12T09:49:16.641Z,1023.1
2022-11-12T09:52:16.637Z,1023.07
2022-11-12T09:55:16.641Z,1023.11
2022-11-12T09:58:16.637Z,1023.09
2022-11-12T10:01:16.661Z,1023.1
2022-11-12T10:04:16.630Z,1023.11
2022-11-12T10:07:16.662Z,1023.08
2022-11-12T10:10:16.631Z,1023.03
2022-11-12T10:13:16.630Z,1022.97
2022-11-12T10:16:16.627Z,1023
2022-11-12T10:19:16.622Z,1022.97
2022-11-12T10:22:16.622Z,1022.95
2022-11-12T10:25:16.621Z,1022.92
2022-11-12T10:28:16.637Z,1022.85
2022-11-12T10:31:16.618Z,1022.83
2022-11-12T10:34:16.630Z,1022.78
2022-11-12T10:37:16.659Z,1022.76
2022-11-12T10:40:16.651Z,1022.77
2022-11-12T10:43:16.670Z,1022.75
2022-11-12T10:46:16.666Z,1022.74
2022-11-12T10:49:16.657Z,1022.75
2022-11-12T10:52:16.655Z,1022.81
2022-11-12T10:55:16.660Z,1022.74
2022-11-12T10:58:16.683Z,1022.76
2022-11-12T11:01:16.711Z,1022.78
2022-11-12T11:04:16.652Z,1022.72
2022-11-12T11:07:16.751Z,1022.71
2022-11-12T11:10:16.709Z,1022.69
2022-11-12T11:13:16.666Z,1022.65
2022-11-12T11:16:16.653Z,1022.6
2022-11-12T11:19:16.710Z,1022.62
2022-11-12T11:22:16.719Z,1022.64
2022-11-12T11:25:16.715Z,1022.59
2022-11-12T11:28:16.715Z,1022.54
2022-11-12T11:31:16.711Z,1022.48
2022-11-12T11:34:16.708Z,1022.4
2022-11-12T11:37:16.706Z,1022.38
2022-11-12T11:40:16.709Z,1022.37
2022-11-12T11:43:16.712Z,1022.33
2022-11-12T11:46:16.708Z,1022.32
2022-11-12T11:49:16.709Z,1022.28
2022-11-12T11:52:16.708Z,1022.29
2022-11-12T11:55:16.717Z,1022.28
2022-11-12T11:58:16.717Z,1022.21
2022-11-12T12:01:16.700Z,1022.22
2022-11-12T12:04:16.681Z,1022.15
2022-11-12T12:07:16.746Z,1022.16
2022-11-12T12:10:16.704Z,1022.12
2022-11-12T12:13:16.707Z,1022.08
2022-11-12T12:16:16.695Z,1022.08
2022-11-12T12:19:16.701Z,1022.05
2022-11-12T12:22:16.702Z,1022.03
2022-11-12T12:25:16.692Z,1021.98
2022-11-12T12:28:16.689Z,1021.99
2022-11-12T12:31:16.688Z,1021.97
2022-11-12T12:34:16.685Z,1021.95
2022-11-12T12:37:16.686Z,1021.95
2022-11-12T12:40:16.675Z,1021.93
2022-11-12T12:43:16.805Z,1021.89
2022-11-12T12:46:16.672Z,1021.84
2022-11-12T12:49:16.669Z,1021.78
2022-11-12T12:52:16.674Z,1021.77
2022-11-12T12:55:16.676Z,1021.7
2022-11-12T12:58:16.671Z,1021.68
2022-11-12T13:01:16.764Z,1021.67
2022-11-12T13:04:16.664Z,1021.65
2022-11-12T13:07:16.757Z,1021.59
2022-11-12T13:10:16.681Z,1021.59
2022-11-12T13:13:16.679Z,1021.5
2022-11-12T13:16:16.676Z,1021.49
2022-11-12T13:19:16.675Z,1021.51
2022-11-12T13:22:16.671Z,1021.51
2022-11-12T13:25:16.679Z,1021.41
2022-11-12T13:28:16.672Z,1021.42
2022-11-12T13:31:16.671Z,1021.46
2022-11-12T13:34:16.672Z,1021.4
2022-11-12T13:37:16.681Z,1021.43
2022-11-12T13:40:16.667Z,1021.4
2022-11-12T13:43:16.665Z,1021.37
2022-11-12T13:46:16.661Z,1021.33
2022-11-12T13:49:16.670Z,1021.34
2022-11-12T13:52:16.664Z,1021.34
2022-11-12T13:55:16.669Z,1021.28
2022-11-12T13:58:16.659Z,1021.24
2022-11-12T14:01:16.690Z,1021.26
2022-11-12T14:04:16.657Z,1021.21
2022-11-12T14:07:16.711Z,1021.17
2022-11-12T14:10:16.665Z,1021.12
2022-11-12T14:13:16.651Z,1021.09
2022-11-12T14:16:16.653Z,1021.11
2022-11-12T14:19:16.648Z,1021.1
2022-11-12T14:22:16.653Z,1021.09
2022-11-12T14:25:16.650Z,1021.03
2022-11-12T14:28:16.651Z,1020.99
2022-11-12T14:31:16.645Z,1020.99
2022-11-12T14:34:16.649Z,1020.98
2022-11-12T14:37:16.651Z,1020.97
2022-11-12T14:40:16.640Z,1020.95
2022-11-12T14:43:18.653Z,1020.95
2022-11-12T14:46:16.654Z,1020.92
2022-11-12T14:49:16.642Z,1020.93
2022-11-12T14:52:16.645Z,1020.9
2022-11-12T14:55:16.646Z,1020.93
2022-11-12T14:58:16.642Z,1020.96
2022-11-12T15:01:38.244Z,1020.96
2022-11-12T15:04:16.635Z,1020.92
2022-11-12T15:07:16.687Z,1020.91
2022-11-12T15:10:16.636Z,1020.93
2022-11-12T15:13:16.634Z,1020.98
2022-11-12T15:16:16.630Z,1020.99
2022-11-12T15:19:16.631Z,1021
2022-11-12T15:22:16.637Z,1020.96
2022-11-12T15:25:16.687Z,1020.92
2022-11-12T15:28:16.628Z,1020.87
2022-11-12T15:31:16.633Z,1020.85
2022-11-12T15:34:16.625Z,1020.84
2022-11-12T15:37:16.645Z,1020.82
2022-11-12T15:40:16.630Z,1020.82
2022-11-12T15:43:16.640Z,1020.76
2022-11-12T15:46:16.638Z,1020.78
2022-11-12T15:49:16.649Z,1020.75
2022-11-12T15:52:16.641Z,1020.74
2022-11-12T15:55:16.643Z,1020.71
2022-11-12T15:58:16.642Z,1020.64
2022-11-12T16:01:16.699Z,1020.63
2022-11-12T16:04:16.630Z,1020.59
2022-11-12T16:07:16.663Z,1020.59
2022-11-12T16:10:16.623Z,1020.59
2022-11-12T16:13:16.643Z,1020.58
2022-11-12T16:16:16.628Z,1020.55
2022-11-12T16:19:16.625Z,1020.55
2022-11-12T16:22:16.622Z,1020.53
2022-11-12T16:25:16.628Z,1020.47
2022-11-12T16:28:16.619Z,1020.46
2022-11-12T16:31:16.626Z,1020.43
2022-11-12T16:34:16.616Z,1020.45
2022-11-12T16:37:16.626Z,1020.42
2022-11-12T16:40:16.608Z,1020.39
2022-11-12T16:43:16.626Z,1020.39
2022-11-12T16:46:16.614Z,1020.4
2022-11-12T16:49:16.615Z,1020.39
2022-11-12T16:52:16.602Z,1020.4
2022-11-12T16:55:16.604Z,1020.42
2022-11-12T16:58:16.605Z,1020.42
2022-11-12T17:01:16.644Z,1020.43
2022-11-12T17:04:16.604Z,1020.46
2022-11-12T17:07:16.707Z,1020.47
2022-11-12T17:10:16.601Z,1020.46
2022-11-12T17:13:16.592Z,1020.41
2022-11-12T17:16:16.604Z,1020.36
2022-11-12T17:19:16.593Z,1020.31
2022-11-12T17:22:16.599Z,1020.37
2022-11-12T17:25:16.599Z,1020.31
2022-11-12T17:28:16.621Z,1020.31
2022-11-12T17:31:16.617Z,1020.31
2022-11-12T17:34:16.601Z,1020.26
2022-11-12T17:37:16.609Z,1020.26
2022-11-12T17:40:16.599Z,1020.28
2022-11-12T17:43:16.608Z,1020.24
2022-11-12T17:46:16.599Z,1020.23
2022-11-12T17:49:16.601Z,1020.25
2022-11-12T17:52:16.606Z,1020.26
2022-11-12T17:55:16.674Z,1020.26
2022-11-12T17:58:16.597Z,1020.26
2022-11-12T18:01:16.616Z,1020.24
2022-11-12T18:04:16.732Z,1020.18
2022-11-12T18:07:16.652Z,1020.22
2022-11-12T18:10:19.477Z,1020.27
2022-11-12T18:13:16.592Z,1020.21
2022-11-12T18:16:16.596Z,1020.17
2022-11-12T18:19:16.631Z,1020.17
2022-11-12T18:22:16.613Z,1020.21
2022-11-12T18:25:16.594Z,1020.19
2022-11-12T18:28:16.595Z,1020.18
2022-11-12T18:31:16.595Z,1020.19
2022-11-12T18:34:16.596Z,1020.15
2022-11-12T18:37:16.589Z,1020.11
2022-11-12T18:40:16.586Z,1020.13
2022-11-12T18:43:16.591Z,1020.14
2022-11-12T18:46:16.601Z,1020.1
2022-11-12T18:49:16.587Z,1020.05
2022-11-12T18:52:16.597Z,1020.02
2022-11-12T18:55:16.618Z,1019.92
2022-11-12T18:58:16.597Z,1019.9
2022-11-12T19:01:16.664Z,1019.87
2022-11-12T19:04:16.579Z,1019.84
2022-11-12T19:07:16.657Z,1019.78
2022-11-12T19:10:16.586Z,1019.68
2022-11-12T19:13:16.586Z,1019.7
2022-11-12T19:16:16.581Z,1019.63
2022-11-12T19:19:16.582Z,1019.64
2022-11-12T19:22:16.575Z,1019.71
2022-11-12T19:25:16.582Z,1019.72
2022-11-12T19:28:16.599Z,1019.75
2022-11-12T19:31:16.578Z,1019.77
2022-11-12T19:34:16.582Z,1019.76
2022-11-12T19:37:32.849Z,1019.74
2022-11-12T19:40:16.574Z,1019.71
2022-11-12T19:43:16.570Z,1019.71
2022-11-12T19:46:16.569Z,1019.72
2022-11-12T19:49:16.571Z,1019.68
2022-11-12T19:52:16.567Z,1019.67
2022-11-12T19:55:16.588Z,1019.63
2022-11-12T19:58:16.575Z,1019.67
2022-11-12T20:01:16.666Z,1019.64
2022-11-12T20:04:20.131Z,1019.69
2022-11-12T20:07:16.674Z,1019.69
2022-11-12T20:10:16.559Z,1019.69
2022-11-12T20:13:16.563Z,1019.64
2022-11-12T20:16:19.591Z,1019.63
2022-11-12T20:19:16.571Z,1019.65
2022-11-12T20:22:16.558Z,1019.65
2022-11-12T20:25:16.552Z,1019.58
2022-11-12T20:28:16.565Z,1019.55
2022-11-12T20:31:16.558Z,1019.56
2022-11-12T20:34:16.558Z,1019.52
2022-11-12T20:37:16.553Z,1019.5
2022-11-12T20:40:16.553Z,1019.49
2022-11-12T20:43:16.553Z,1019.48
2022-11-12T20:46:16.546Z,1019.44
2022-11-12T20:49:16.552Z,1019.47
2022-11-12T20:52:16.544Z,1019.43
2022-11-12T20:55:16.556Z,1019.44
2022-11-12T20:58:16.549Z,1019.37
2022-11-12T21:01:16.597Z,1019.29
2022-11-12T21:04:16.542Z,1019.24
2022-11-12T21:07:16.591Z,1019.19
2022-11-12T21:10:16.542Z,1019.16
2022-11-12T21:13:16.542Z,1019.21
2022-11-12T21:16:16.540Z,1019.13
2022-11-12T21:19:16.547Z,1019.08
2022-11-12T21:22:16.539Z,1019.06
2022-11-12T21:25:16.533Z,1019.06
2022-11-12T21:28:16.539Z,1019.1
2022-11-12T21:31:16.545Z,1019.08
2022-11-12T21:34:16.552Z,1019.09
2022-11-12T21:37:16.537Z,1019.07
2022-11-12T21:40:16.523Z,1019.04
2022-11-12T21:43:16.529Z,1019.08
2022-11-12T21:46:16.540Z,1019.05
2022-11-12T21:49:16.527Z,1018.98
2022-11-12T21:52:16.522Z,1018.96
2022-11-12T21:55:16.525Z,1018.92
2022-11-12T21:58:16.548Z,1018.87
2022-11-12T22:01:16.519Z,1018.85
2022-11-12T22:04:18.394Z,1018.81
2022-11-12T22:07:16.569Z,1018.76
2022-11-12T22:10:16.515Z,1018.75
2022-11-12T22:13:26.282Z,1018.72
2022-11-12T22:16:16.516Z,1018.77
2022-11-12T22:19:16.522Z,1018.74
2022-11-12T22:22:16.520Z,1018.69
2022-11-12T22:25:16.515Z,1018.7
2022-11-12T22:28:16.516Z,1018.66
2022-11-12T22:31:16.513Z,1018.61
2022-11-12T22:34:16.511Z,1018.55
2022-11-12T22:37:16.515Z,1018.55
2022-11-12T22:40:16.509Z,1018.48
2022-11-12T22:43:16.506Z,1018.5
2022-11-12T22:46:16.514Z,1018.5
2022-11-12T22:49:16.506Z,1018.51
2022-11-12T22:52:16.522Z,1018.42
2022-11-12T22:55:16.506Z,1018.41
2022-11-12T22:58:16.507Z,1018.38
2022-11-12T23:01:16.552Z,1018.39
2022-11-12T23:04:16.500Z,1018.38
2022-11-12T23:07:16.534Z,1018.39
2022-11-12T23:10:16.507Z,1018.34
2022-11-12T23:13:16.504Z,1018.33
2022-11-12T23:16:16.496Z,1018.33
2022-11-12T23:19:16.504Z,1018.3
2022-11-12T23:22:16.500Z,1018.29
2022-11-12T23:25:16.506Z,1018.34
2022-11-12T23:28:16.500Z,1018.32
2022-11-12T23:31:16.497Z,1018.27
2022-11-12T23:34:16.509Z,1018.3
2022-11-12T23:37:16.496Z,1018.29
2022-11-12T23:40:16.490Z,1018.23
2022-11-12T23:43:16.493Z,1018.21
2022-11-12T23:46:16.498Z,1018.2
2022-11-12T23:49:16.485Z,1018.13
2022-11-12T23:52:18.635Z,1018.07
2022-11-12T23:55:16.481Z,1018.04
2022-11-12T23:58:16.479Z,1017.98
